Flight Track Log - Related Links

Times and Time Zones

All times are in EST time to prevent confusion due to time zone crossing. See the FSR411 flight status page for this flight to view local times or setup timezone preferences in your user account.

Time Position Orientation Groundspeed Altitude Reporting Facility
EST Latitude Longitude Course Direction KTS MPH feet Rate Location/Type
Tue 05:27:00 PM 40.0925 -88.2908 73° East 190 219 41,000  Level Chicago Center
Tue 05:28:02 PM 40.1122 -88.2086 73° East 227 261 6,600 -15,339 Descending Chicago Center
Tue 05:29:04 PM 40.1336 -88.1167 73° East 245 282 9,300 2,613 Climbing Chicago Center
Tue 05:30:06 PM 40.1583 -88.0047 74° East 288 331 12,000 2,952 Climbing Chicago Center
Tue 05:31:08 PM 40.1892 -87.8761 73° East 341 392 15,400 3,208 Climbing Chicago Center
Tue 05:31:47 PM 40.2056 -87.7944 75° East 378 435 17,400 2,970 Climbing Indianapolis Center
Tue 05:32:49 PM 40.2394 -87.6467 73° East 409 471 20,400 2,903 Climbing Indianapolis Center
Tue 05:33:51 PM 40.2806 -87.4583 74° East 440 506 23,400 2,516 Climbing Indianapolis Center
Tue 05:34:53 PM 40.3175 -87.2919 74° East 467 537 25,600 2,516 Climbing Indianapolis Center
Tue 05:35:55 PM 40.3539 -87.1250 74° East 476 548 28,600 2,323 Climbing Indianapolis Center
Tue 05:36:57 PM 40.3900 -86.9589 74° East 474 545 30,400 1,597 Climbing Indianapolis Center
Tue 05:37:59 PM 40.4275 -86.7853 74° East 489 563 31,900 1,258 Climbing Indianapolis Center
Tue 05:39:01 PM 40.4653 -86.6083 74° East 501 577 33,000 1,065 Climbing Indianapolis Center
Tue 05:40:03 PM 40.5111 -86.3875 75° East 518 596 34,100 1,161 Climbing Indianapolis Center
Tue 05:41:05 PM 40.5514 -86.2000 74° East 530 610 35,400 1,403 Climbing Indianapolis Center
Tue 05:42:07 PM 40.5892 -86.0144 75° East 526 605 37,000 774 Climbing Indianapolis Center
Tue 05:43:09 PM 40.6275 -85.8281 75° East 527 606 37,000 384 Level Indianapolis Center
Tue 05:44:12 PM 40.6667 -85.6372 75° East 536 617 37,800 1,104 Climbing Indianapolis Center
Tue 05:45:14 PM 40.7036 -85.4517 75° East 530 610 39,300 1,258 Climbing Indianapolis Center
Tue 05:46:16 PM 40.7472 -85.2358 75° East 512 589 40,400 638 Climbing Indianapolis Center
Tue 05:47:54 PM 40.8050 -84.9442 75° East 513 590 41,000 225 Climbing Chicago Center
Tue 05:48:56 PM 40.8411 -84.7592 75° East 517 595 41,000  Level Chicago Center
Tue 05:49:58 PM 40.8772 -84.5700 76° East 524 603 41,000  Level Chicago Center
Tue 05:51:00 PM 40.9139 -84.3800 76° East 532 612 41,000  Level Chicago Center
Tue 05:52:02 PM 40.9569 -84.1525 76° East 534 615 41,000  Level Chicago Center
Tue 05:53:04 PM 40.9978 -83.9642 74° East 535 616 41,000  Level Chicago Center
Tue 05:54:07 PM 41.0403 -83.7756 73° East 537 618 41,000  Level Chicago Center
Tue 05:55:09 PM 41.0828 -83.5864 73° East 538 619 41,000  Level Chicago Center
Tue 05:56:14 PM 41.1258 -83.3869 74° East 540 621 41,000  Level Cleveland Center
Tue 05:57:16 PM 41.1753 -83.1586 74° East 540 621 41,000  Level Cleveland Center
Tue 05:58:18 PM 41.2131 -82.9783 74° East 543 625 41,000  Level Cleveland Center
Tue 05:59:21 PM 41.2550 -82.7828 74° East 545 627 41,000  Level Cleveland Center
Tue 06:00:23 PM 41.3017 -82.5536 75° East 546 628 41,000  Level Cleveland Center
Tue 06:01:26 PM 41.3428 -82.3569 74° East 548 631 41,000  Level Cleveland Center
Tue 06:02:28 PM 41.3831 -82.1569 75° East 550 633 41,000  Level Cleveland Center
Tue 06:03:30 PM 41.4231 -81.9592 75° East 548 631 41,000  Level Cleveland Center
Tue 06:04:32 PM 41.4639 -81.7581 75° East 548 631 41,000  Level Cleveland Center
Tue 06:05:34 PM 41.5033 -81.5569 75° East 546 628 41,000  Level Cleveland Center
Tue 06:06:36 PM 41.5425 -81.3578 75° East 545 627 41,000  Level Cleveland Center
Tue 06:07:38 PM 41.5819 -81.1575 75° East 549 632 41,000  Level Cleveland Center
Tue 06:08:40 PM 41.6203 -80.9575 76° East 549 632 41,000  Level Cleveland Center
Tue 06:09:42 PM 41.6594 -80.7561 75° East 553 636 41,000  Level Cleveland Center
Tue 06:10:44 PM 41.7047 -80.5183 76° East 559 643 41,000  Level Cleveland Center
Tue 06:11:46 PM 41.7433 -80.3122 76° East 566 651 41,000  Level Cleveland Center
Tue 06:12:48 PM 41.7817 -80.1047 76° East 570 656 41,000  Level Cleveland Center
Tue 06:13:51 PM 41.8194 -79.8969 76° East 569 655 41,000  Level Cleveland Center
Tue 06:14:53 PM 41.8564 -79.6872 77° East 573 659 41,000  Level Cleveland Center
Tue 06:15:55 PM 41.8917 -79.4903 76° East 568 654 41,000  Level Cleveland Center
Tue 06:16:57 PM 41.9350 -79.2425 77° East 567 652 41,000  Level Cleveland Center
Tue 06:17:59 PM 41.9703 -79.0361 77° East 568 654 41,000  Level Cleveland Center
Tue 06:19:01 PM 42.0061 -78.8258 77° East 576 663 41,000  Level Cleveland Center
Tue 06:20:03 PM 42.0425 -78.6164 77° East 575 662 41,000  Level Cleveland Center
Tue 06:21:05 PM 42.0775 -78.4053 77° East 577 664 41,000  Level Cleveland Center
Tue 06:22:07 PM 42.1244 -78.1606 75° East 581 669 41,000  Level Cleveland Center
Tue 06:23:09 PM 42.1814 -77.9561 69° East 587 676 41,000  Level Cleveland Center
Tue 06:24:11 PM 42.2378 -77.7500 70° East 590 679 41,000  Level Cleveland Center
Tue 06:25:13 PM 42.2928 -77.5422 70° East 595 685 41,000  Level Cleveland Center
Tue 06:26:15 PM 42.3578 -77.2936 70° East 595 685 41,000  Level Cleveland Center
Tue 06:27:17 PM 42.3836 -77.0786 81° East 588 677 41,000  Level Cleveland Center
Tue 06:28:20 PM 42.4108 -76.8619 80° East 589 678 41,000  Level Cleveland Center
Tue 06:29:00 PM 42.4281 -76.7333 80° East 589 678 41,000  Level Boston Center
Tue 06:30:00 PM 42.4542 -76.5150 81° East 590 679 41,000  Level Boston Center
Tue 06:31:04 PM 42.4867 -76.2531 80° East 590 679 41,000  Level Boston Center
Tue 06:32:04 PM 42.5089 -76.0547 81° East 591 680 41,000  Level Boston Center
Tue 06:33:06 PM 42.5350 -75.8336 81° East 595 685 41,000  Level Boston Center
Tue 06:34:09 PM 42.5592 -75.6156 81° East 592 681 41,000  Level Boston Center
Tue 06:35:09 PM 42.5894 -75.3522 81° East 594 684 41,000  Level Boston Center
Tue 06:36:13 PM 42.6122 -75.1308 82° East 597 687 41,000  Level Boston Center
Tue 06:37:13 PM 42.6364 -74.9094 81° East 599 689 41,000  Level Boston Center
Tue 06:38:15 PM 42.6594 -74.6892 82° East 594 684 41,000  Level Boston Center
Tue 06:39:18 PM 42.6675 -74.4692 87° East 587 676 41,000 -290 Level Boston Center
Tue 06:40:19 PM 42.6569 -74.2511 94° East 580 667 40,400 -829 Descending Boston Center
Tue 06:41:21 PM 42.6475 -74.0314 93° East 567 652 39,300 -2,164 Descending Boston Center
Tue 06:42:21 PM 42.6361 -73.7808 93° East 556 640 36,000 -3,074 Descending Boston Center
Tue 06:43:22 PM 42.6267 -73.5706 93° East 557 641 33,100 -2,710 Descending Boston Center
Tue 06:44:25 PM 42.6169 -73.3572 93° East 564 649 30,400 -2,634 Descending Boston Center
Tue 06:45:25 PM 42.6072 -73.1447 93° East 559 643 27,700 -2,419 Descending Boston Center
Tue 06:46:29 PM 42.5981 -72.9433 93° East 554 638 25,400 -1,790 Descending Boston Center
Tue 06:47:29 PM 42.5856 -72.7472 95° East 522 601 24,000 -1,672 Descending Boston Center
Tue 06:48:31 PM 42.5761 -72.5614 94° East 500 575 22,000 -2,195 Descending Boston Center
Tue 06:49:32 PM 42.5636 -72.3467 94° East 479 551 19,500 -2,177 Descending Boston Center
Tue 06:50:35 PM 42.5542 -72.1675 94° East 461 531 17,500 -2,081 Descending Boston Center
Tue 06:51:36 PM 42.5442 -72.0111 95° East 416 479 15,200 -2,132 Descending Boston Center
Tue 06:52:36 PM 42.5294 -71.8708 98° East 379 436 13,200 -1,770 Descending Boston Center
Tue 06:53:38 PM 42.5169 -71.7286 97° East 355 409 11,600 -1,065 Descending Boston Center
Tue 06:54:40 PM 42.5000 -71.6167 102° East 305 351 11,000 -934 Descending KA90
Tue 06:55:40 PM 42.5000 -71.5000 90° East 275 316 9,700 -1,000 Descending KA90
Tue 06:56:40 PM 42.4833 -71.4000 103° East 270 311 9,000 -667 Descending KA90
Tue 06:57:46 PM 42.4667 -71.3000 103° East 256 295 8,300 -857 Descending KA90
Tue 06:58:46 PM 42.4000 -71.2333 144° Southeast 251 289 7,200 -1,053 Descending KA90
Tue 06:59:40 PM 42.3833 -71.1500 105° East 246 283 6,300 -626 Descending KA90
Tue 07:00:41 PM 42.4167 -71.0833 56° Northeast 264 304 6,000 -143 Descending KA90
Tue 07:01:46 PM 42.5000 -71.0500 16° North 243 280 6,000 -605 Level KA90
Tue 07:02:40 PM 42.5500 -71.0333 14° North 232 267 4,800 -1,107 Descending KA90
Tue 07:03:29 PM 42.6000 -71.0167 14° North 230 265 4,100 -381 Descending KA90
Tue 07:04:46 PM 42.6667 -70.9833 20° North 219 252 4,000 -50 Descending KA90
Tue 07:05:29 PM 42.7167 -70.9667 14° North 225 259 4,000  Level KA90
Tue 07:06:35 PM 42.7333 -70.9000 71° East 216 249 4,000  Level KA90
Tue 07:07:29 PM 42.7167 -70.8667 124° Southeast 186 214 4,000  Level KA90
Tue 07:08:01 PM 42.6814 -70.8553 167° South 185 213 4,000  Level Boston Center
Tue 07:09:01 PM 42.6367 -70.8739 197° South 170 196 4,000  Level Boston Center
Tue 07:09:41 PM 42.6000 -70.8833 191° South 165 190 4,000  Level KA90
Tue 07:10:41 PM 42.5667 -70.9000 200° South 170 196 4,000 -368 Level KA90
Tue 07:11:35 PM 42.5167 -70.9333 206° Southwest 172 198 3,300 -889 Descending KA90
Tue 07:12:29 PM 42.4833 -70.9500 200° South 169 194 2,400 -905 Descending KA90
Tue 07:13:41 PM 42.4333 -70.9667 194° South 162 186 1,400 -833 Descending KA90

Login

Don't have an account? Register now (free) for customized features, flight alerts, and more!